createdAt,value
2022-10-18T00:00:01.888Z,63.86
2022-10-18T00:02:31.057Z,63.37
2022-10-18T00:04:57.629Z,63.75
2022-10-18T00:07:24.250Z,63.65
2022-10-18T00:09:50.819Z,63.57
2022-10-18T00:12:17.544Z,63.46
2022-10-18T00:14:44.087Z,63.23
2022-10-18T00:17:10.692Z,63.21
2022-10-18T00:19:37.223Z,62.73
2022-10-18T00:22:03.809Z,62.77
2022-10-18T00:24:30.503Z,63.06
2022-10-18T00:26:57.047Z,62.87
2022-10-18T00:29:24.004Z,63.19
2022-10-18T00:31:50.688Z,63.11
2022-10-18T00:34:17.428Z,62.68
2022-10-18T00:36:44.629Z,62.58
2022-10-18T00:39:18.023Z,62.74
2022-10-18T00:41:45.401Z,62.75
2022-10-18T00:44:11.935Z,63.09
2022-10-18T00:46:44.200Z,62.78
2022-10-18T00:49:15.557Z,63.10
2022-10-18T00:51:49.847Z,63.08
2022-10-18T00:54:19.338Z,62.86
2022-10-18T00:56:46.165Z,62.72
2022-10-18T00:59:15.144Z,62.32
2022-10-18T01:01:41.953Z,62.62
2022-10-18T01:04:08.531Z,62.68
2022-10-18T01:06:50.578Z,62.54
2022-10-18T01:09:42.318Z,62.66
2022-10-18T01:12:21.014Z,63.15
2022-10-18T01:15:03.680Z,62.63
2022-10-18T01:17:42.286Z,62.95
2022-10-18T01:20:29.888Z,63.14
2022-10-18T01:23:13.236Z,63.56
2022-10-18T01:25:55.827Z,62.69
2022-10-18T01:29:19.405Z,62.85
2022-10-18T01:32:19.263Z,62.90
2022-10-18T01:34:48.322Z,62.62
2022-10-18T01:37:17.695Z,63.02
2022-10-18T01:39:47.200Z,63.19
2022-10-18T01:42:17.039Z,62.66
2022-10-18T01:44:45.455Z,62.15
2022-10-18T01:47:14.811Z,61.99
2022-10-18T01:49:41.427Z,61.97
2022-10-18T01:52:15.837Z,61.47
2022-10-18T01:54:51.108Z,62.18
2022-10-18T01:57:37.831Z,62.26
2022-10-18T02:00:41.076Z,61.76
2022-10-18T02:03:21.279Z,61.52
2022-10-18T02:06:05.468Z,61.60
2022-10-18T02:08:44.588Z,61.63
2022-10-18T02:11:15.686Z,61.99
2022-10-18T02:13:44.292Z,62.07
2022-10-18T02:16:16.697Z,61.99
2022-10-18T02:18:58.326Z,61.53
2022-10-18T02:21:26.357Z,61.28
2022-10-18T02:23:53.922Z,61.53
2022-10-18T02:26:20.537Z,61.68
2022-10-18T02:28:47.151Z,61.35
2022-10-18T02:31:27.663Z,61.77
2022-10-18T02:33:58.580Z,61.77
2022-10-18T02:36:33.180Z,62.03
2022-10-18T02:39:08.084Z,61.41
2022-10-18T02:41:34.677Z,61.91
2022-10-18T02:44:01.356Z,61.32
2022-10-18T02:46:28.208Z,61.40
2022-10-18T02:48:54.813Z,61.23
2022-10-18T02:51:21.382Z,62.05
2022-10-18T02:53:47.924Z,62.02
2022-10-18T02:56:14.489Z,61.66
2022-10-18T02:58:41.177Z,61.99
2022-10-18T03:01:07.892Z,62.06
2022-10-18T03:03:34.570Z,61.95
2022-10-18T03:06:01.247Z,62.03
2022-10-18T03:08:28.001Z,62.35
2022-10-18T03:10:54.551Z,61.96
2022-10-18T03:13:21.108Z,62.75
2022-10-18T03:15:48.636Z,62.81
2022-10-18T03:18:15.533Z,62.82
2022-10-18T03:20:42.105Z,62.46
2022-10-18T03:23:09.083Z,62.50
2022-10-18T03:25:35.738Z,62.92
2022-10-18T03:28:02.424Z,62.40
2022-10-18T03:30:29.269Z,62.87
2022-10-18T03:32:56.196Z,62.66
2022-10-18T03:35:22.989Z,62.11
2022-10-18T03:37:49.753Z,61.74
2022-10-18T03:40:16.625Z,61.57
2022-10-18T03:42:43.453Z,61.88
2022-10-18T03:45:10.318Z,61.94
2022-10-18T03:47:36.917Z,61.58
2022-10-18T03:50:04.097Z,61.64
2022-10-18T03:52:30.992Z,61.40
2022-10-18T03:54:57.909Z,61.96
2022-10-18T03:57:24.515Z,62.07
2022-10-18T03:59:51.070Z,61.91
2022-10-18T04:02:17.609Z,61.72
2022-10-18T04:04:44.175Z,61.52
2022-10-18T04:07:10.686Z,61.90
2022-10-18T04:09:37.425Z,61.71
2022-10-18T04:12:04.288Z,62.06
2022-10-18T04:14:30.834Z,61.95
2022-10-18T04:16:57.336Z,62.51
2022-10-18T04:19:32.718Z,62.24
2022-10-18T04:21:59.458Z,62.19
2022-10-18T04:24:26.050Z,62.50
2022-10-18T04:26:52.596Z,62.50
2022-10-18T04:29:19.112Z,62.73
2022-10-18T04:31:45.826Z,62.81
2022-10-18T04:34:12.507Z,63.22
2022-10-18T04:36:39.097Z,63.44
2022-10-18T04:39:05.642Z,62.96
2022-10-18T04:41:32.357Z,63.06
2022-10-18T04:43:58.880Z,62.96
2022-10-18T04:46:25.797Z,63.10
2022-10-18T04:48:52.472Z,63.53
2022-10-18T04:51:19.125Z,63.19
2022-10-18T04:53:45.823Z,63.36
2022-10-18T04:56:12.388Z,63.04
2022-10-18T04:58:38.958Z,63.95
2022-10-18T05:01:06.867Z,63.95
2022-10-18T05:03:34.254Z,63.43
2022-10-18T05:06:02.610Z,63.38
2022-10-18T05:08:29.893Z,63.64
2022-10-18T05:10:56.598Z,63.96
2022-10-18T05:13:23.311Z,64.14
2022-10-18T05:15:49.956Z,64.15
2022-10-18T05:18:16.601Z,63.63
2022-10-18T05:20:43.195Z,64.05
2022-10-18T05:23:12.549Z,64.25
2022-10-18T05:25:40.267Z,64.23
2022-10-18T05:28:11.118Z,64.45
2022-10-18T05:30:47.990Z,64.32
2022-10-18T05:33:14.694Z,64.13
2022-10-18T05:35:41.263Z,64.19
2022-10-18T05:38:07.890Z,64.39
2022-10-18T05:40:34.564Z,64.50
2022-10-18T05:43:01.140Z,64.00
2022-10-18T05:45:27.814Z,63.66
2022-10-18T05:47:55.098Z,64.06
2022-10-18T05:50:22.005Z,64.20
2022-10-18T05:52:48.640Z,63.66
2022-10-18T05:55:15.593Z,64.32
2022-10-18T05:57:42.201Z,64.61
2022-10-18T06:00:09.670Z,64.40
2022-10-18T06:02:38.468Z,63.95
2022-10-18T06:05:05.393Z,63.74
2022-10-18T06:07:32.234Z,63.97
2022-10-18T06:09:58.938Z,63.70
2022-10-18T06:12:25.510Z,63.55
2022-10-18T06:14:52.286Z,63.49
2022-10-18T06:17:18.928Z,63.47
2022-10-18T06:19:45.628Z,63.61
2022-10-18T06:22:12.595Z,63.98
2022-10-18T06:24:39.189Z,64.14
2022-10-18T06:27:08.957Z,64.67
2022-10-18T06:29:36.502Z,63.79
2022-10-18T06:32:04.071Z,64.10
2022-10-18T06:34:30.920Z,64.23
2022-10-18T06:36:58.797Z,64.49
2022-10-18T06:39:25.783Z,64.10
2022-10-18T06:41:52.826Z,64.07
2022-10-18T06:44:20.670Z,63.26
2022-10-18T06:46:48.724Z,63.30
2022-10-18T06:49:19.026Z,63.54
2022-10-18T06:51:46.320Z,63.38
2022-10-18T06:54:17.993Z,63.50
2022-10-18T06:56:45.659Z,63.72
2022-10-18T06:59:12.261Z,63.22
2022-10-18T07:01:39.019Z,63.54
2022-10-18T07:04:05.741Z,63.55
2022-10-18T07:06:32.412Z,64.35
2022-10-18T07:08:59.039Z,65.68
2022-10-18T07:11:27.195Z,65.72
2022-10-18T07:13:56.981Z,65.56
2022-10-18T07:16:23.646Z,66.19
2022-10-18T07:18:51.465Z,66.45
2022-10-18T07:21:20.962Z,66.21
2022-10-18T07:23:48.344Z,67.54
2022-10-18T07:26:23.155Z,68.62
2022-10-18T07:28:54.636Z,69.47
2022-10-18T07:31:22.731Z,70.08
2022-10-18T07:33:49.322Z,69.90
2022-10-18T07:36:15.937Z,70.05
2022-10-18T07:38:42.718Z,69.94
2022-10-18T07:41:12.466Z,68.99
2022-10-18T07:43:42.121Z,68.79
2022-10-18T07:46:08.730Z,68.31
2022-10-18T07:48:35.380Z,67.88
2022-10-18T07:51:02.564Z,67.80
2022-10-18T07:53:29.650Z,67.77
2022-10-18T07:56:02.422Z,67.63
2022-10-18T07:58:33.343Z,68.27
2022-10-18T08:01:05.533Z,67.95
2022-10-18T08:03:32.468Z,68.12
2022-10-18T08:05:59.360Z,68.13
2022-10-18T08:08:26.515Z,68.33
2022-10-18T08:10:53.220Z,68.13
2022-10-18T08:13:20.315Z,67.47
2022-10-18T08:15:47.357Z,67.23
2022-10-18T08:18:14.332Z,67.22
2022-10-18T08:20:45.812Z,66.07
2022-10-18T08:23:12.512Z,66.26
2022-10-18T08:25:39.262Z,66.26
2022-10-18T08:28:06.539Z,65.70
2022-10-18T08:30:35.091Z,65.92
2022-10-18T08:33:02.504Z,65.82
2022-10-18T08:35:29.031Z,66.29
2022-10-18T08:37:55.602Z,66.16
2022-10-18T08:40:22.147Z,66.10
2022-10-18T08:43:01.124Z,65.41
2022-10-18T08:45:41.842Z,64.45
2022-10-18T08:48:19.423Z,63.43
2022-10-18T08:50:46.723Z,63.82
2022-10-18T08:53:46.289Z,62.86
2022-10-18T08:56:16.198Z,62.46
2022-10-18T08:58:46.606Z,62.21
2022-10-18T09:01:41.795Z,62.23
2022-10-18T09:04:30.024Z,61.24
2022-10-18T09:07:27.279Z,60.59
2022-10-18T09:10:03.111Z,60.66
2022-10-18T09:12:43.890Z,60.67
2022-10-18T09:15:13.349Z,60.50
2022-10-18T09:18:21.937Z,61.08
2022-10-18T09:20:59.981Z,60.97
2022-10-18T09:23:49.379Z,60.96
2022-10-18T09:26:20.147Z,60.37
2022-10-18T09:29:13.366Z,59.55
2022-10-18T09:32:07.428Z,58.91
2022-10-18T09:34:40.111Z,57.99
2022-10-18T09:37:13.283Z,58.32
2022-10-18T09:39:40.955Z,57.25
2022-10-18T09:42:16.637Z,57.84
2022-10-18T09:44:55.954Z,57.21
2022-10-18T09:47:35.755Z,55.84
2022-10-18T09:50:13.996Z,54.56
2022-10-18T09:53:06.443Z,53.53
2022-10-18T09:55:38.727Z,51.36
2022-10-18T09:58:08.297Z,51.15
2022-10-18T10:00:43.228Z,51.76
2022-10-18T10:03:14.885Z,52.22
2022-10-18T10:05:42.875Z,51.62
2022-10-18T10:08:10.962Z,51.96
2022-10-18T10:10:40.868Z,51.74
2022-10-18T10:13:17.075Z,50.16
2022-10-18T10:16:06.155Z,49.00
2022-10-18T10:18:40.288Z,49.69
2022-10-18T10:21:16.395Z,51.40
2022-10-18T10:24:02.289Z,52.76
2022-10-18T10:26:38.871Z,53.49
2022-10-18T10:29:44.847Z,53.87
2022-10-18T10:32:17.479Z,53.50
2022-10-18T10:34:45.009Z,52.53
2022-10-18T10:37:36.249Z,52.32
2022-10-18T10:40:18.201Z,52.96
2022-10-18T10:43:12.946Z,52.56
2022-10-18T10:46:02.625Z,53.44
2022-10-18T10:48:33.697Z,53.41
2022-10-18T10:51:04.350Z,53.22
2022-10-18T10:53:34.412Z,53.01
2022-10-18T10:56:03.062Z,53.70
2022-10-18T10:58:35.658Z,53.70
2022-10-18T11:01:20.205Z,52.88
2022-10-18T11:03:48.871Z,51.45
2022-10-18T11:06:42.894Z,48.13
2022-10-18T11:09:22.997Z,46.87
2022-10-18T11:12:00.727Z,46.78
2022-10-18T11:14:36.037Z,48.52
2022-10-18T11:17:34.373Z,49.40
2022-10-18T11:20:07.030Z,50.33
2022-10-18T11:22:40.537Z,50.80
2022-10-18T11:25:14.943Z,51.75
2022-10-18T11:27:54.228Z,52.42
2022-10-18T11:30:56.497Z,52.84
2022-10-18T11:34:03.698Z,54.31
2022-10-18T11:36:56.378Z,55.35
2022-10-18T11:40:00.037Z,55.50
2022-10-18T11:42:39.669Z,54.89
2022-10-18T11:45:39.668Z,55.12
2022-10-18T11:48:06.136Z,54.99
2022-10-18T11:50:58.435Z,54.98
2022-10-18T11:53:52.190Z,55.30
2022-10-18T11:56:35.898Z,55.91
2022-10-18T11:59:12.014Z,56.06
2022-10-18T12:01:58.297Z,56.29
2022-10-18T12:04:30.314Z,57.01
2022-10-18T12:06:57.399Z,57.10
2022-10-18T12:09:43.492Z,57.62
2022-10-18T12:12:24.637Z,57.60
2022-10-18T12:14:55.165Z,57.58
2022-10-18T12:17:50.109Z,57.67
2022-10-18T12:20:34.832Z,57.46
2022-10-18T12:23:38.318Z,57.64
2022-10-18T12:26:07.679Z,57.66
2022-10-18T12:28:58.961Z,57.67
2022-10-18T12:31:38.763Z,57.95
2022-10-18T12:34:23.712Z,58.35
2022-10-18T12:39:43.635Z,57.86
2022-10-18T12:42:25.207Z,58.73
2022-10-18T12:45:21.283Z,59.16
2022-10-18T12:47:47.866Z,58.85
2022-10-18T12:50:23.324Z,59.48
2022-10-18T12:53:17.062Z,59.10
2022-10-18T12:55:46.590Z,58.87
2022-10-18T12:58:32.665Z,58.36
2022-10-18T13:01:03.114Z,58.05
2022-10-18T13:03:40.006Z,57.63
2022-10-18T13:06:07.741Z,57.41
2022-10-18T13:08:42.124Z,57.31
2022-10-18T13:11:09.014Z,57.09
2022-10-18T13:13:54.083Z,57.54
2022-10-18T13:16:20.788Z,56.82
2022-10-18T13:19:14.919Z,56.08
2022-10-18T13:21:53.024Z,56.14
2022-10-18T13:24:42.528Z,55.91
2022-10-18T13:27:40.227Z,56.11
2022-10-18T13:30:27.076Z,56.07
2022-10-18T13:33:09.561Z,55.75
2022-10-18T13:35:55.470Z,55.20
2022-10-18T13:38:37.542Z,55.56
2022-10-18T13:41:12.547Z,55.26
2022-10-18T13:43:57.962Z,56.12
2022-10-18T13:46:33.735Z,56.64
2022-10-18T13:49:20.108Z,56.87
2022-10-18T13:51:55.753Z,56.94
2022-10-18T13:54:25.284Z,58.18
2022-10-18T13:57:05.437Z,58.59
2022-10-18T14:00:02.279Z,59.35
2022-10-18T14:02:51.496Z,58.96
2022-10-18T14:05:25.366Z,58.84
2022-10-18T14:07:59.833Z,58.80
2022-10-18T14:10:57.266Z,58.42
2022-10-18T14:13:30.273Z,59.06
2022-10-18T14:16:05.921Z,58.78
2022-10-18T14:18:36.759Z,59.21
2022-10-18T14:21:14.008Z,59.78
2022-10-18T14:23:47.206Z,59.84
2022-10-18T14:26:16.292Z,60.24
2022-10-18T14:29:00.481Z,60.13
2022-10-18T14:31:27.980Z,60.15
2022-10-18T14:33:58.245Z,60.19
2022-10-18T14:36:29.457Z,60.56
2022-10-18T14:39:07.673Z,60.63
2022-10-18T14:41:36.600Z,60.75
2022-10-18T14:44:19.220Z,61.29
2022-10-18T14:46:47.400Z,61.23
2022-10-18T14:49:15.015Z,60.60
2022-10-18T14:51:43.997Z,60.62
2022-10-18T14:54:30.655Z,60.88
2022-10-18T14:57:00.030Z,61.20
2022-10-18T14:59:30.564Z,60.82
2022-10-18T15:02:03.072Z,61.10
2022-10-18T15:04:33.074Z,61.35
2022-10-18T15:07:13.718Z,61.49
2022-10-18T15:09:40.854Z,61.43
2022-10-18T15:12:08.306Z,61.66
2022-10-18T15:14:36.475Z,61.75
2022-10-18T15:17:08.422Z,62.18
2022-10-18T15:19:39.315Z,61.85
2022-10-18T15:25:14.756Z,62.81
2022-10-18T15:27:45.202Z,62.83
2022-10-18T15:30:19.772Z,62.74
2022-10-18T15:32:58.706Z,62.83
2022-10-18T15:35:34.478Z,62.61
2022-10-18T15:38:26.410Z,62.83
2022-10-18T15:40:54.354Z,62.90
2022-10-18T15:43:24.123Z,63.26
2022-10-18T15:46:01.760Z,63.17
2022-10-18T15:48:40.904Z,63.41
2022-10-18T15:51:18.813Z,63.71
2022-10-18T15:53:53.708Z,63.74
2022-10-18T15:56:28.764Z,63.84
2022-10-18T15:58:59.680Z,63.52
2022-10-18T16:01:32.658Z,63.72
2022-10-18T16:04:00.937Z,63.52
2022-10-18T16:06:27.595Z,63.25
2022-10-18T16:08:54.614Z,63.54
2022-10-18T16:11:26.387Z,63.30
2022-10-18T16:13:56.450Z,63.68
2022-10-18T16:16:28.683Z,63.82
2022-10-18T16:18:56.059Z,64.06
2022-10-18T16:21:26.629Z,64.18
2022-10-18T16:23:54.058Z,64.46
2022-10-18T16:26:21.076Z,64.76
2022-10-18T16:28:48.048Z,65.04
2022-10-18T16:31:18.274Z,65.21
2022-10-18T16:33:45.984Z,64.73
2022-10-18T16:36:20.738Z,65.17
2022-10-18T16:38:49.337Z,68.62
2022-10-18T16:41:16.344Z,71.03
2022-10-18T16:43:44.874Z,73.18
2022-10-18T16:46:18.315Z,74.55
2022-10-18T16:48:46.622Z,76.14
2022-10-18T16:51:13.787Z,77.54
2022-10-18T16:53:40.697Z,78.14
2022-10-18T16:56:17.131Z,79.67
2022-10-18T16:58:43.916Z,79.17
2022-10-18T17:01:16.674Z,78.99
2022-10-18T17:03:44.919Z,79.61
2022-10-18T17:06:18.559Z,79.01
2022-10-18T17:08:45.789Z,79.83
2022-10-18T17:11:14.991Z,79.80
2022-10-18T17:13:41.796Z,80.10
2022-10-18T17:16:34.237Z,79.62
2022-10-18T17:19:03.660Z,80.05
2022-10-18T17:21:31.516Z,80.01
2022-10-18T17:24:05.919Z,79.62
2022-10-18T17:26:32.845Z,79.25
2022-10-18T17:29:03.439Z,79.32
2022-10-18T17:31:31.124Z,79.78
2022-10-18T17:33:59.693Z,80.55
2022-10-18T17:36:26.457Z,80.31
2022-10-18T17:38:54.575Z,79.79
2022-10-18T17:41:21.244Z,79.34
2022-10-18T17:43:48.637Z,79.67
2022-10-18T17:46:16.107Z,79.83
2022-10-18T17:48:43.245Z,78.81
2022-10-18T17:51:12.513Z,78.54
2022-10-18T17:53:39.585Z,78.84
2022-10-18T17:56:07.799Z,78.57
2022-10-18T17:58:35.378Z,78.95
2022-10-18T18:01:12.553Z,78.99
2022-10-18T18:03:40.682Z,78.63
2022-10-18T18:06:16.628Z,78.51
2022-10-18T18:08:44.170Z,78.83
2022-10-18T18:11:10.920Z,77.90
2022-10-18T18:13:37.534Z,77.97
2022-10-18T18:16:15.169Z,77.66
2022-10-18T18:18:42.406Z,77.48
2022-10-18T18:21:09.059Z,77.22
2022-10-18T18:23:35.866Z,76.89
2022-10-18T18:26:02.711Z,76.63
2022-10-18T18:28:29.354Z,76.33
2022-10-18T18:30:56.859Z,76.67
2022-10-18T18:33:23.568Z,77.04
2022-10-18T18:35:57.228Z,77.36
2022-10-18T18:38:24.674Z,77.40
2022-10-18T18:41:06.574Z,76.58
2022-10-18T18:43:33.671Z,77.22
2022-10-18T18:46:00.607Z,77.04
2022-10-18T18:48:28.917Z,76.77
2022-10-18T18:50:55.577Z,76.63
2022-10-18T18:53:25.992Z,76.60
2022-10-18T18:56:01.551Z,76.42
2022-10-18T18:58:28.208Z,76.16
2022-10-18T19:00:55.663Z,76.31
2022-10-18T19:03:22.291Z,76.46
2022-10-18T19:05:48.863Z,76.28
2022-10-18T19:08:15.564Z,76.76
2022-10-18T19:10:42.435Z,76.46
2022-10-18T19:13:09.190Z,76.69
2022-10-18T19:15:36.224Z,76.58
2022-10-18T19:18:05.513Z,76.72
2022-10-18T19:20:32.113Z,76.46
2022-10-18T19:22:58.831Z,76.37
2022-10-18T19:25:27.073Z,76.76
2022-10-18T19:27:54.134Z,75.94
2022-10-18T19:30:20.801Z,76.03
2022-10-18T19:32:47.449Z,75.69
2022-10-18T19:35:14.176Z,75.60
2022-10-18T19:37:40.901Z,75.41
2022-10-18T19:40:08.004Z,74.99
2022-10-18T19:42:35.963Z,74.55
2022-10-18T19:45:03.283Z,74.85
2022-10-18T19:47:29.924Z,74.65
2022-10-18T19:49:56.815Z,74.85
2022-10-18T19:52:23.529Z,74.35
2022-10-18T19:54:50.290Z,74.33
2022-10-18T19:57:17.203Z,74.20
2022-10-18T19:59:44.015Z,74.28
2022-10-18T20:02:15.170Z,74.02
2022-10-18T20:04:42.014Z,74.05
2022-10-18T20:07:08.908Z,73.32
2022-10-18T20:09:35.500Z,73.74
2022-10-18T20:12:02.106Z,73.36
2022-10-18T20:14:28.785Z,73.27
2022-10-18T20:16:55.451Z,73.11
2022-10-18T20:19:22.041Z,72.85
2022-10-18T20:21:48.702Z,72.95
2022-10-18T20:24:15.413Z,72.62
2022-10-18T20:26:43.641Z,72.78
2022-10-18T20:29:10.483Z,73.01
2022-10-18T20:31:38.931Z,73.16
2022-10-18T20:34:08.753Z,72.93
2022-10-18T20:36:35.767Z,72.80
2022-10-18T20:39:02.693Z,72.79
2022-10-18T20:41:38.284Z,73.15
2022-10-18T20:44:07.180Z,73.11
2022-10-18T20:46:36.141Z,72.71
2022-10-18T20:49:04.542Z,72.52
2022-10-18T20:51:33.486Z,72.76
2022-10-18T20:54:01.656Z,72.96
2022-10-18T20:56:28.305Z,72.92
2022-10-18T20:58:57.710Z,72.61
2022-10-18T21:01:27.489Z,72.86
2022-10-18T21:03:55.685Z,73.04
2022-10-18T21:06:33.802Z,72.64
2022-10-18T21:09:32.898Z,73.04
2022-10-18T21:11:59.480Z,73.19
2022-10-18T21:14:26.408Z,73.33
2022-10-18T21:16:53.445Z,73.56
2022-10-18T21:19:25.926Z,73.52
2022-10-18T21:21:55.566Z,73.69
2022-10-18T21:24:23.584Z,74.48
2022-10-18T21:26:50.333Z,74.79
2022-10-18T21:29:21.654Z,75.07
2022-10-18T21:31:49.179Z,74.83
2022-10-18T21:34:17.478Z,74.99
2022-10-18T21:36:46.226Z,75.21
2022-10-18T21:39:19.130Z,75.18
2022-10-18T21:41:46.406Z,75.07
2022-10-18T21:44:13.975Z,75.05
2022-10-18T21:46:42.998Z,75.28
2022-10-18T21:49:10.529Z,75.16
2022-10-18T21:51:37.664Z,75.03
2022-10-18T21:54:04.574Z,75.12
2022-10-18T21:56:33.215Z,75.17
2022-10-18T21:59:00.089Z,75.63
2022-10-18T22:01:32.522Z,76.30
2022-10-18T22:04:00.405Z,75.79
2022-10-18T22:06:32.720Z,75.38
2022-10-18T22:09:02.271Z,75.54
2022-10-18T22:11:32.198Z,75.40
2022-10-18T22:13:59.210Z,75.42
2022-10-18T22:16:26.467Z,75.47
2022-10-18T22:18:56.937Z,75.18
2022-10-18T22:21:23.610Z,75.10
2022-10-18T22:23:52.771Z,75.32
2022-10-18T22:26:27.150Z,75.22
2022-10-18T22:28:56.890Z,74.81
2022-10-18T22:31:26.431Z,74.31
2022-10-18T22:33:59.380Z,74.27
2022-10-18T22:36:27.110Z,73.84
2022-10-18T22:38:54.021Z,74.88
2022-10-18T22:41:20.625Z,74.01
2022-10-18T22:43:47.751Z,74.28
2022-10-18T22:46:15.085Z,74.48
2022-10-18T22:48:42.632Z,74.74
2022-10-18T22:51:10.102Z,75.13
2022-10-18T22:53:37.710Z,75.54
2022-10-18T22:56:05.366Z,75.56
2022-10-18T22:58:32.475Z,75.65
2022-10-18T23:01:07.888Z,75.31
2022-10-18T23:03:34.587Z,75.28
2022-10-18T23:06:01.732Z,75.75
2022-10-18T23:08:28.741Z,75.88
2022-10-18T23:10:57.606Z,75.49
2022-10-18T23:13:25.339Z,75.52
2022-10-18T23:15:52.702Z,75.87
2022-10-18T23:18:19.569Z,75.35
2022-10-18T23:20:46.214Z,75.23
2022-10-18T23:23:13.006Z,74.54
2022-10-18T23:25:39.866Z,74.32
2022-10-18T23:28:06.881Z,73.84
2022-10-18T23:30:34.015Z,74.24
2022-10-18T23:33:00.858Z,74.02
2022-10-18T23:35:29.322Z,73.96
2022-10-18T23:37:55.908Z,73.78
2022-10-18T23:40:23.148Z,73.51
2022-10-18T23:42:49.754Z,73.42
2022-10-18T23:45:16.413Z,73.32
2022-10-18T23:47:43.010Z,73.21
2022-10-18T23:50:09.707Z,73.14
2022-10-18T23:52:36.292Z,72.64
2022-10-18T23:55:02.914Z,72.27
2022-10-18T23:57:29.488Z,72.29
2022-10-18T23:59:56.115Z,72.29
